createdAt,value
2018-09-19T00:00:17.515Z,10.63
2018-09-19T00:01:19.687Z,12.18
2018-09-19T00:02:21.849Z,11.60
2018-09-19T00:03:24.072Z,11.25
2018-09-19T00:04:26.291Z,10.78
2018-09-19T00:05:28.424Z,12.03
2018-09-19T00:06:30.618Z,10.40
2018-09-19T00:07:32.759Z,10.98
2018-09-19T00:08:34.934Z,10.70
2018-09-19T00:09:37.129Z,9.98
2018-09-19T00:10:39.351Z,9.95
2018-09-19T00:11:41.546Z,12.33
2018-09-19T00:12:43.675Z,11.65
2018-09-19T00:13:45.808Z,8.63
2018-09-19T00:14:48.235Z,12.25
2018-09-19T00:15:50.391Z,13.35
2018-09-19T00:16:52.592Z,11.40
2018-09-19T00:17:54.785Z,9.65
2018-09-19T00:18:56.956Z,12.70
2018-09-19T00:19:59.145Z,12.15
2018-09-19T00:21:01.713Z,11.12
2018-09-19T00:22:03.838Z,9.73
2018-09-19T00:23:05.974Z,10.70
2018-09-19T00:24:08.143Z,9.23
2018-09-19T00:25:10.728Z,9.60
2018-09-19T00:26:12.885Z,12.82
2018-09-19T00:27:15.533Z,10.30
2018-09-19T00:28:17.663Z,9.65
2018-09-19T00:29:19.787Z,11.40
2018-09-19T00:30:21.952Z,12.37
2018-09-19T00:31:24.184Z,12.50
2018-09-19T00:32:26.301Z,10.10
2018-09-19T00:33:28.460Z,10.18
2018-09-19T00:34:31.437Z,10.82
2018-09-19T00:35:33.561Z,9.70
2018-09-19T00:36:35.691Z,10.75
2018-09-19T00:37:38.085Z,8.93
2018-09-19T00:38:40.243Z,10.50
2018-09-19T00:39:42.533Z,10.90
2018-09-19T00:41:52.646Z,10.48
2018-09-19T00:42:54.801Z,11.70
2018-09-19T00:43:56.976Z,11.50
2018-09-19T00:44:59.113Z,10.15
2018-09-19T00:46:01.323Z,10.55
2018-09-19T00:47:03.465Z,11.55
2018-09-19T00:48:06.287Z,9.00
2018-09-19T00:49:08.450Z,10.93
2018-09-19T00:50:10.607Z,11.57
2018-09-19T00:51:12.799Z,8.50
2018-09-19T00:52:14.950Z,8.55
2018-09-19T00:53:17.386Z,10.15
2018-09-19T00:54:19.534Z,9.25
2018-09-19T00:55:21.697Z,9.23
2018-09-19T00:56:24.125Z,8.48
2018-09-19T00:57:26.484Z,7.87
2018-09-19T00:58:35.274Z,8.13
2018-09-19T00:59:37.687Z,9.28
2018-09-19T01:00:39.833Z,10.30
2018-09-19T01:01:41.988Z,10.25
2018-09-19T01:02:44.143Z,12.10
2018-09-19T01:03:46.595Z,9.33
2018-09-19T01:04:48.793Z,12.43
2018-09-19T01:05:50.958Z,10.05
2018-09-19T01:06:53.128Z,9.68
2018-09-19T01:07:55.291Z,10.70
2018-09-19T01:08:57.913Z,10.35
2018-09-19T01:10:00.089Z,12.05
2018-09-19T01:11:02.225Z,10.72
2018-09-19T01:12:04.438Z,13.10
2018-09-19T01:13:06.615Z,11.00
2018-09-19T01:14:08.750Z,12.13
2018-09-19T01:15:10.879Z,10.98
2018-09-19T01:16:13.024Z,10.60
2018-09-19T01:17:15.408Z,10.65
2018-09-19T01:18:17.548Z,10.15
2018-09-19T01:19:19.770Z,10.95
2018-09-19T01:20:21.977Z,12.90
2018-09-19T01:21:24.180Z,13.43
2018-09-19T01:22:26.320Z,11.68
2018-09-19T01:23:28.540Z,11.63
2018-09-19T01:24:30.676Z,12.18
2018-09-19T01:25:32.817Z,11.83
2018-09-19T01:26:35.010Z,11.65
2018-09-19T01:27:37.418Z,14.28
2018-09-19T01:28:39.537Z,13.38
2018-09-19T01:29:41.695Z,11.43
2018-09-19T01:30:43.851Z,11.43
2018-09-19T01:31:45.992Z,15.90
2018-09-19T01:32:48.169Z,16.77
2018-09-19T01:33:50.321Z,10.98
2018-09-19T01:34:52.457Z,12.15
2018-09-19T01:35:54.595Z,11.03
2018-09-19T01:36:56.865Z,11.83
2018-09-19T01:37:59.040Z,14.45
2018-09-19T01:39:01.461Z,10.15
2018-09-19T01:40:03.742Z,11.70
2018-09-19T01:41:06.297Z,11.85
2018-09-19T01:42:08.457Z,9.98
2018-09-19T01:43:10.603Z,11.22
2018-09-19T01:44:12.725Z,11.73
2018-09-19T01:45:14.877Z,11.10
2018-09-19T01:46:23.984Z,12.00
2018-09-19T01:47:26.141Z,10.35
2018-09-19T01:48:28.283Z,13.22
2018-09-19T01:49:30.405Z,11.00
2018-09-19T01:50:32.567Z,13.03
2018-09-19T01:51:34.740Z,12.85
2018-09-19T01:52:36.957Z,12.15
2018-09-19T01:53:39.198Z,8.70
2018-09-19T01:54:41.338Z,8.90
2018-09-19T01:55:43.492Z,11.75
2018-09-19T01:56:45.649Z,12.45
2018-09-19T01:57:47.788Z,10.98
2018-09-19T01:58:49.938Z,13.05
2018-09-19T01:59:52.123Z,12.40
2018-09-19T02:00:54.336Z,10.43
2018-09-19T02:01:56.540Z,11.57
2018-09-19T02:03:00.534Z,13.58
2018-09-19T02:04:02.697Z,11.43
2018-09-19T02:05:05.222Z,11.88
2018-09-19T02:06:07.681Z,13.08
2018-09-19T02:07:09.841Z,12.30
2018-09-19T02:08:11.993Z,12.13
2018-09-19T02:09:14.109Z,12.40
2018-09-19T02:10:16.461Z,9.80
2018-09-19T02:11:18.674Z,14.28
2018-09-19T02:12:20.817Z,10.90
2018-09-19T02:13:22.954Z,13.22
2018-09-19T02:14:25.433Z,10.85
2018-09-19T02:15:27.641Z,9.80
2018-09-19T02:16:29.765Z,10.80
2018-09-19T02:17:31.919Z,11.05
2018-09-19T02:18:34.088Z,10.78
2018-09-19T02:19:36.264Z,11.95
2018-09-19T02:20:38.414Z,12.78
2018-09-19T02:21:40.556Z,10.10
2018-09-19T02:22:42.740Z,9.73
2018-09-19T02:23:44.922Z,11.35
2018-09-19T02:24:47.055Z,10.72
2018-09-19T02:25:49.247Z,10.10
2018-09-19T02:26:51.441Z,10.88
2018-09-19T02:27:53.902Z,10.78
2018-09-19T02:28:56.045Z,12.33
2018-09-19T02:29:58.247Z,10.98
2018-09-19T02:31:00.442Z,12.10
2018-09-19T02:32:02.602Z,10.72
2018-09-19T02:33:04.995Z,10.43
2018-09-19T02:34:07.209Z,10.90
2018-09-19T02:35:09.406Z,11.15
2018-09-19T02:36:11.587Z,12.30
2018-09-19T02:37:13.731Z,10.65
2018-09-19T02:38:15.884Z,12.60
2018-09-19T02:39:18.015Z,11.88
2018-09-19T02:40:20.215Z,10.95
2018-09-19T02:41:22.398Z,12.60
2018-09-19T02:42:24.550Z,13.20
2018-09-19T02:43:26.694Z,11.45
2018-09-19T02:44:28.887Z,12.10
2018-09-19T02:45:31.026Z,15.30
2018-09-19T02:46:33.242Z,11.20
2018-09-19T02:47:35.670Z,12.23
2018-09-19T02:48:37.865Z,10.35
2018-09-19T02:49:40.000Z,12.37
2018-09-19T02:50:42.149Z,11.97
2018-09-19T02:51:44.318Z,11.68
2018-09-19T02:52:52.908Z,11.30
2018-09-19T02:53:55.062Z,12.15
2018-09-19T02:54:57.550Z,8.95
2018-09-19T02:55:59.767Z,11.83
2018-09-19T02:57:01.976Z,11.18
2018-09-19T02:58:04.396Z,11.12
2018-09-19T02:59:06.805Z,11.00
2018-09-19T03:00:08.961Z,9.65
2018-09-19T03:01:11.221Z,13.00
2018-09-19T03:02:13.391Z,10.88
2018-09-19T03:03:15.993Z,9.75
2018-09-19T03:04:18.166Z,10.95
2018-09-19T03:05:20.354Z,11.97
2018-09-19T03:06:22.510Z,10.40
2018-09-19T03:07:24.679Z,10.32
2018-09-19T03:08:27.046Z,10.53
2018-09-19T03:09:29.186Z,10.30
2018-09-19T03:10:31.333Z,9.73
2018-09-19T03:11:33.536Z,9.18
2018-09-19T03:12:35.785Z,9.23
2018-09-19T03:13:37.939Z,10.35
2018-09-19T03:14:40.097Z,8.20
2018-09-19T03:15:42.236Z,10.03
2018-09-19T03:16:44.436Z,10.30
2018-09-19T03:17:47.277Z,9.10
2018-09-19T03:18:49.362Z,8.40
2018-09-19T03:19:51.571Z,10.28
2018-09-19T03:20:54.168Z,10.65
2018-09-19T03:21:56.343Z,13.05
2018-09-19T03:22:58.555Z,12.85
2018-09-19T03:24:00.743Z,10.08
2018-09-19T03:25:02.935Z,8.25
2018-09-19T03:26:05.210Z,10.18
2018-09-19T03:27:07.403Z,9.70
2018-09-19T03:28:09.776Z,9.40
2018-09-19T03:29:11.921Z,10.50
2018-09-19T03:30:14.130Z,10.18
2018-09-19T03:31:16.312Z,14.10
2018-09-19T03:32:18.504Z,9.63
2018-09-19T03:33:20.747Z,11.38
2018-09-19T03:34:22.922Z,7.85
2018-09-19T03:35:25.071Z,8.93
2018-09-19T03:36:27.264Z,8.53
2018-09-19T03:37:29.446Z,8.65
2018-09-19T03:38:31.646Z,9.43
2018-09-19T03:39:33.836Z,7.95
2018-09-19T03:40:36.070Z,12.05
2018-09-19T03:41:40.093Z,9.13
2018-09-19T03:42:42.632Z,10.45
2018-09-19T03:43:45.089Z,9.98
2018-09-19T03:44:47.298Z,12.35
2018-09-19T03:45:49.509Z,9.88
2018-09-19T03:46:51.694Z,8.68
2018-09-19T03:47:53.880Z,7.10
2018-09-19T03:48:56.031Z,8.78
2018-09-19T03:49:58.300Z,8.50
2018-09-19T03:51:00.508Z,8.78
2018-09-19T03:52:02.704Z,9.48
2018-09-19T03:53:05.214Z,9.58
2018-09-19T03:54:07.902Z,8.45
2018-09-19T03:55:10.156Z,11.18
2018-09-19T03:56:12.305Z,8.98
2018-09-19T03:57:14.484Z,8.85
2018-09-19T03:58:21.563Z,12.20
2018-09-19T03:59:26.768Z,10.10
2018-09-19T04:00:32.094Z,10.28
2018-09-19T04:01:36.403Z,9.23
2018-09-19T04:02:40.909Z,9.18
2018-09-19T04:03:46.142Z,9.45
2018-09-19T04:04:50.960Z,9.38
2018-09-19T04:05:56.103Z,8.58
2018-09-19T04:06:58.358Z,9.75
2018-09-19T04:08:00.625Z,8.20
2018-09-19T04:09:04.078Z,7.03
2018-09-19T04:10:06.271Z,10.72
2018-09-19T04:11:08.484Z,10.40
2018-09-19T04:12:10.784Z,9.65
2018-09-19T04:13:12.986Z,9.68
2018-09-19T04:14:15.184Z,8.13
2018-09-19T04:15:17.651Z,9.13
2018-09-19T04:16:19.818Z,8.33
2018-09-19T04:17:22.390Z,8.33
2018-09-19T04:18:24.579Z,9.63
2018-09-19T04:19:26.783Z,8.65
2018-09-19T04:20:29.042Z,9.23
2018-09-19T04:21:31.259Z,10.95
2018-09-19T04:22:33.438Z,9.08
2018-09-19T04:23:35.623Z,9.80
2018-09-19T04:24:37.844Z,9.20
2018-09-19T04:25:40.685Z,9.98
2018-09-19T04:26:42.921Z,10.58
2018-09-19T04:27:45.583Z,12.18
2018-09-19T04:28:47.765Z,9.35
2018-09-19T04:29:50.050Z,10.35
2018-09-19T04:30:52.430Z,9.55
2018-09-19T04:31:54.622Z,9.05
2018-09-19T04:32:57.520Z,8.05
2018-09-19T04:33:59.750Z,12.78
2018-09-19T04:35:01.942Z,11.38
2018-09-19T04:36:04.262Z,9.28
2018-09-19T04:37:06.440Z,8.75
2018-09-19T04:38:08.597Z,9.85
2018-09-19T04:39:12.081Z,9.20
2018-09-19T04:40:14.234Z,10.00
2018-09-19T04:41:16.527Z,12.43
2018-09-19T04:42:18.705Z,11.30
2018-09-19T04:43:20.825Z,10.75
2018-09-19T04:44:22.957Z,9.43
2018-09-19T04:45:25.104Z,10.28
2018-09-19T04:46:27.266Z,11.50
2018-09-19T04:47:29.460Z,11.95
2018-09-19T04:48:31.607Z,10.78
2018-09-19T04:49:33.782Z,9.70
2018-09-19T04:50:35.932Z,11.48
2018-09-19T04:51:39.521Z,9.63
2018-09-19T04:52:41.561Z,12.35
2018-09-19T04:53:43.697Z,8.40
2018-09-19T04:54:45.861Z,10.23
2018-09-19T04:55:48.056Z,10.78
2018-09-19T04:56:50.204Z,10.45
2018-09-19T04:57:52.326Z,10.30
2018-09-19T04:58:54.475Z,11.97
2018-09-19T04:59:56.633Z,11.35
2018-09-19T05:00:58.791Z,9.60
2018-09-19T05:02:01.382Z,10.15
2018-09-19T05:03:03.529Z,12.37
2018-09-19T05:04:05.779Z,8.95
2018-09-19T05:05:08.249Z,10.82
2018-09-19T05:06:10.383Z,11.10
2018-09-19T05:08:21.608Z,12.18
2018-09-19T05:09:23.721Z,9.05
2018-09-19T05:10:25.872Z,9.65
2018-09-19T05:11:28.074Z,10.08
2018-09-19T05:12:30.166Z,10.70
2018-09-19T05:13:32.313Z,21.50
2018-09-19T05:14:34.554Z,12.98
2018-09-19T05:15:36.920Z,12.03
2018-09-19T05:16:39.025Z,11.38
2018-09-19T05:17:41.176Z,9.55
2018-09-19T05:18:43.290Z,9.75
2018-09-19T05:19:45.405Z,8.28
2018-09-19T05:20:47.521Z,12.10
2018-09-19T05:21:49.633Z,10.38
2018-09-19T05:22:52.203Z,9.68
2018-09-19T05:23:54.305Z,10.98
2018-09-19T05:24:56.408Z,11.15
2018-09-19T05:25:58.513Z,11.15
2018-09-19T05:27:00.643Z,11.30
2018-09-19T05:28:02.777Z,11.63
2018-09-19T05:29:05.147Z,10.32
2018-09-19T05:30:07.322Z,13.65
2018-09-19T05:31:09.476Z,10.98
2018-09-19T05:32:11.673Z,10.00
2018-09-19T05:33:13.767Z,11.28
2018-09-19T05:34:15.878Z,11.43
2018-09-19T05:35:17.989Z,10.55
2018-09-19T05:36:20.110Z,9.10
2018-09-19T05:37:22.263Z,13.15
2018-09-19T05:38:24.497Z,11.48
2018-09-19T05:39:26.641Z,12.25
2018-09-19T05:40:28.837Z,10.05
2018-09-19T05:41:30.952Z,11.68
2018-09-19T05:42:33.088Z,10.95
2018-09-19T05:43:35.245Z,12.10
2018-09-19T05:44:37.353Z,11.70
2018-09-19T05:45:39.470Z,10.40
2018-09-19T05:46:41.609Z,13.65
2018-09-19T05:47:43.741Z,11.73
2018-09-19T05:48:45.882Z,11.43
2018-09-19T05:49:47.994Z,10.78
2018-09-19T05:50:50.108Z,10.78
2018-09-19T05:51:52.260Z,9.10
2018-09-19T05:52:54.467Z,11.53
2018-09-19T05:53:56.588Z,12.55
2018-09-19T05:54:58.697Z,10.20
2018-09-19T05:56:00.817Z,11.63
2018-09-19T05:57:02.944Z,11.18
2018-09-19T05:58:05.341Z,10.53
2018-09-19T05:59:07.445Z,9.63
2018-09-19T06:00:09.601Z,10.38
2018-09-19T06:01:11.751Z,12.45
2018-09-19T06:02:14.134Z,12.35
2018-09-19T06:03:16.275Z,11.25
2018-09-19T06:04:18.395Z,9.48
2018-09-19T06:05:20.502Z,11.55
2018-09-19T06:06:22.717Z,11.95
2018-09-19T06:07:24.860Z,12.28
2018-09-19T06:08:27.003Z,9.60
2018-09-19T06:09:29.105Z,8.68
2018-09-19T06:10:31.221Z,10.35
2018-09-19T06:11:33.366Z,12.10
2018-09-19T06:12:35.513Z,10.80
2018-09-19T06:13:37.660Z,12.50
2018-09-19T06:14:39.779Z,12.68
2018-09-19T06:15:41.897Z,12.88
2018-09-19T06:16:44.021Z,9.78
2018-09-19T06:17:46.214Z,10.72
2018-09-19T06:18:48.337Z,8.83
2018-09-19T06:19:50.535Z,8.55
2018-09-19T06:20:52.670Z,10.70
2018-09-19T06:21:54.809Z,11.10
2018-09-19T06:22:56.917Z,10.10
2018-09-19T06:23:59.072Z,9.80
2018-09-19T06:25:01.183Z,8.95
2018-09-19T06:26:03.344Z,8.98
2018-09-19T06:27:05.552Z,8.13
2018-09-19T06:28:07.640Z,11.18
2018-09-19T06:29:09.779Z,10.75
2018-09-19T06:30:11.934Z,10.03
2018-09-19T06:31:14.062Z,12.95
2018-09-19T06:32:16.169Z,8.20
2018-09-19T06:33:18.322Z,11.30
2018-09-19T06:34:20.458Z,9.70
2018-09-19T06:35:22.593Z,12.60
2018-09-19T06:36:24.722Z,9.83
2018-09-19T06:37:26.844Z,11.65
2018-09-19T06:38:29.035Z,9.68
2018-09-19T06:39:31.121Z,9.18
2018-09-19T06:40:33.654Z,12.65
2018-09-19T06:41:35.636Z,13.22
2018-09-19T06:42:37.802Z,10.75
2018-09-19T06:43:39.910Z,12.60
2018-09-19T06:44:42.026Z,10.28
2018-09-19T06:45:44.186Z,11.00
2018-09-19T06:46:46.375Z,10.78
2018-09-19T06:47:48.453Z,10.68
2018-09-19T06:48:50.617Z,11.55
2018-09-19T06:49:52.975Z,12.28
2018-09-19T06:50:55.099Z,10.60
2018-09-19T06:51:57.295Z,10.72
2018-09-19T06:52:59.397Z,12.13
2018-09-19T06:54:01.553Z,10.38
2018-09-19T06:55:03.707Z,10.55
2018-09-19T06:56:05.863Z,10.10
2018-09-19T06:57:07.990Z,11.73
2018-09-19T06:58:10.117Z,12.28
2018-09-19T06:59:12.689Z,12.03
2018-09-19T07:00:14.870Z,11.12
2018-09-19T07:01:17.321Z,16.95
2018-09-19T07:02:19.525Z,11.22
2018-09-19T07:03:21.658Z,9.53
2018-09-19T07:04:23.805Z,11.12
2018-09-19T07:05:25.999Z,10.85
2018-09-19T07:06:28.120Z,9.65
2018-09-19T07:07:30.246Z,10.55
2018-09-19T07:08:32.380Z,10.43
2018-09-19T07:09:34.497Z,10.78
2018-09-19T07:10:36.710Z,10.13
2018-09-19T07:11:38.772Z,7.42
2018-09-19T07:12:41.106Z,9.45
2018-09-19T07:13:43.246Z,11.12
2018-09-19T07:14:45.377Z,8.68
2018-09-19T07:15:47.607Z,10.10
2018-09-19T07:16:49.711Z,12.73
2018-09-19T07:17:52.360Z,9.48
2018-09-19T07:18:54.549Z,8.43
2018-09-19T07:19:56.661Z,10.48
2018-09-19T07:20:58.801Z,10.88
2018-09-19T07:22:00.913Z,7.42
2018-09-19T07:23:03.070Z,9.48
2018-09-19T07:24:05.513Z,9.35
2018-09-19T07:25:07.744Z,9.63
2018-09-19T07:26:09.822Z,8.65
2018-09-19T07:27:12.002Z,9.20
2018-09-19T07:28:14.346Z,7.37
2018-09-19T07:29:16.476Z,8.90
2018-09-19T07:30:18.647Z,9.40
2018-09-19T07:31:20.866Z,8.28
2018-09-19T07:32:23.005Z,7.30
2018-09-19T07:33:25.130Z,11.15
2018-09-19T07:34:28.144Z,8.65
2018-09-19T07:35:30.260Z,10.82
2018-09-19T07:36:32.425Z,8.58
2018-09-19T07:37:34.551Z,9.10
2018-09-19T07:38:36.727Z,8.18
2018-09-19T07:39:43.344Z,9.18
2018-09-19T07:40:45.476Z,8.33
2018-09-19T07:41:47.595Z,9.10
2018-09-19T07:42:50.034Z,8.95
2018-09-19T07:43:52.171Z,8.28
2018-09-19T07:44:54.598Z,9.25
2018-09-19T07:45:56.737Z,8.48
2018-09-19T07:46:58.849Z,10.75
2018-09-19T07:48:00.975Z,9.60
2018-09-19T07:49:03.166Z,8.23
2018-09-19T07:50:05.635Z,9.70
2018-09-19T07:51:07.763Z,12.23
2018-09-19T07:52:09.882Z,9.25
2018-09-19T07:53:12.086Z,8.45
2018-09-19T07:54:14.210Z,8.65
2018-09-19T07:55:16.470Z,9.30
2018-09-19T07:56:18.588Z,7.28
2018-09-19T07:57:20.742Z,8.05
2018-09-19T07:58:22.850Z,7.53
2018-09-19T07:59:24.961Z,11.18
2018-09-19T08:00:27.346Z,7.03
2018-09-19T08:01:29.513Z,10.20
2018-09-19T08:02:31.741Z,9.90
2018-09-19T08:03:33.946Z,8.90
2018-09-19T08:04:36.093Z,8.15
2018-09-19T08:05:38.569Z,9.58
2018-09-19T08:06:40.814Z,9.45
2018-09-19T08:07:42.939Z,8.00
2018-09-19T08:08:45.070Z,9.35
2018-09-19T08:09:47.204Z,8.85
2018-09-19T08:10:49.514Z,8.28
2018-09-19T08:11:51.667Z,9.83
2018-09-19T08:12:53.810Z,9.05
2018-09-19T08:13:55.954Z,8.48
2018-09-19T08:14:58.060Z,7.03
2018-09-19T08:16:00.208Z,8.33
2018-09-19T08:17:02.421Z,6.95
2018-09-19T08:18:04.488Z,8.90
2018-09-19T08:19:06.765Z,7.40
2018-09-19T08:20:08.903Z,9.25
2018-09-19T08:21:11.029Z,9.28
2018-09-19T08:22:13.151Z,8.78
2018-09-19T08:23:15.273Z,8.40
2018-09-19T08:24:17.406Z,6.25
2018-09-19T08:25:19.933Z,9.05
2018-09-19T08:26:22.073Z,8.00
2018-09-19T08:27:24.178Z,9.65
2018-09-19T08:28:26.322Z,7.70
2018-09-19T08:29:28.460Z,7.87
2018-09-19T08:30:30.625Z,9.73
2018-09-19T08:31:32.801Z,8.93
2018-09-19T08:32:35.037Z,8.13
2018-09-19T08:33:37.478Z,9.78
2018-09-19T08:34:39.813Z,7.10
2018-09-19T08:35:41.999Z,9.13
2018-09-19T08:36:44.205Z,11.53
2018-09-19T08:37:46.345Z,8.83
2018-09-19T08:38:48.546Z,10.35
2018-09-19T08:39:50.762Z,9.95
2018-09-19T08:40:52.912Z,10.85
2018-09-19T08:41:56.374Z,8.20
2018-09-19T08:42:58.509Z,8.88
2018-09-19T08:44:00.605Z,8.43
2018-09-19T08:45:02.798Z,8.03
2018-09-19T08:46:04.942Z,7.12
2018-09-19T08:47:07.049Z,8.33
2018-09-19T08:48:09.164Z,7.83
2018-09-19T08:49:11.308Z,7.95
2018-09-19T08:50:13.501Z,8.03
2018-09-19T08:51:15.626Z,10.32
2018-09-19T08:52:17.761Z,8.93
2018-09-19T08:53:20.555Z,8.65
2018-09-19T08:54:22.699Z,10.58
2018-09-19T08:55:24.868Z,9.50
2018-09-19T08:56:27.089Z,8.65
2018-09-19T08:57:29.546Z,8.25
2018-09-19T08:58:32.015Z,8.43
2018-09-19T08:59:34.182Z,10.70
2018-09-19T09:00:36.331Z,6.83
2018-09-19T09:01:38.485Z,8.20
2018-09-19T09:02:40.589Z,9.25
2018-09-19T09:03:42.755Z,8.63
2018-09-19T09:04:45.133Z,7.28
2018-09-19T09:05:47.247Z,8.43
2018-09-19T09:06:49.561Z,8.88
2018-09-19T09:07:51.696Z,7.78
2018-09-19T09:08:54.166Z,7.95
2018-09-19T09:09:56.333Z,10.75
2018-09-19T09:10:58.754Z,8.85
2018-09-19T09:12:00.933Z,8.80
2018-09-19T09:13:03.051Z,8.43
2018-09-19T09:14:05.173Z,6.37
2018-09-19T09:15:07.324Z,8.60
2018-09-19T09:16:09.449Z,8.30
2018-09-19T09:17:11.576Z,8.58
2018-09-19T09:18:13.734Z,8.85
2018-09-19T09:19:16.236Z,7.95
2018-09-19T09:20:18.358Z,6.47
2018-09-19T09:21:20.511Z,8.55
2018-09-19T09:22:22.982Z,8.30
2018-09-19T09:23:25.094Z,7.80
2018-09-19T09:24:27.224Z,7.40
2018-09-19T09:25:29.380Z,7.80
2018-09-19T09:26:31.514Z,7.95
2018-09-19T09:27:33.673Z,10.05
2018-09-19T09:28:35.810Z,10.30
2018-09-19T09:29:37.950Z,9.53
2018-09-19T09:30:40.077Z,8.78
2018-09-19T09:31:42.238Z,9.28
2018-09-19T09:32:44.426Z,9.10
2018-09-19T09:33:47.017Z,10.80
2018-09-19T09:34:49.140Z,8.83
2018-09-19T09:35:51.256Z,8.45
2018-09-19T09:36:53.501Z,9.15
2018-09-19T09:37:55.841Z,8.53
2018-09-19T09:38:57.948Z,7.37
2018-09-19T09:40:00.079Z,9.33
2018-09-19T09:41:02.246Z,8.98
2018-09-19T09:42:04.378Z,9.25
2018-09-19T09:43:06.499Z,7.05
2018-09-19T09:44:08.612Z,10.38
2018-09-19T09:45:10.788Z,8.35
2018-09-19T09:46:12.982Z,12.23
2018-09-19T09:47:15.113Z,8.98
2018-09-19T09:48:17.222Z,6.53
2018-09-19T09:49:19.375Z,8.93
2018-09-19T09:50:21.541Z,8.23
2018-09-19T09:51:23.705Z,8.90
2018-09-19T09:52:25.961Z,8.55
2018-09-19T09:53:28.150Z,7.25
2018-09-19T09:54:30.266Z,8.25
2018-09-19T09:55:32.425Z,8.00
2018-09-19T09:56:34.613Z,7.70
2018-09-19T09:57:36.802Z,8.45
2018-09-19T09:58:38.902Z,7.87
2018-09-19T09:59:41.027Z,7.40
2018-09-19T10:00:43.204Z,6.58
2018-09-19T10:01:45.321Z,7.45
2018-09-19T10:02:47.441Z,7.35
2018-09-19T10:03:49.648Z,7.15
2018-09-19T10:04:51.777Z,8.20
2018-09-19T10:05:53.954Z,7.90
2018-09-19T10:06:56.081Z,8.38
2018-09-19T10:07:58.511Z,7.58
2018-09-19T10:09:00.651Z,9.48
2018-09-19T10:10:03.099Z,9.63
2018-09-19T10:11:05.873Z,7.65
2018-09-19T10:12:08.042Z,8.88
2018-09-19T10:13:10.203Z,7.95
2018-09-19T10:14:12.306Z,8.70
2018-09-19T10:15:14.473Z,7.47
2018-09-19T10:16:16.817Z,8.00
2018-09-19T10:17:19.250Z,6.87
2018-09-19T10:18:21.413Z,7.50
2018-09-19T10:19:23.535Z,8.63
2018-09-19T10:20:25.641Z,6.95
2018-09-19T10:21:27.941Z,6.58
2018-09-19T10:22:30.120Z,8.40
2018-09-19T10:23:32.274Z,8.40
2018-09-19T10:24:34.390Z,6.85
2018-09-19T10:25:36.580Z,6.85
2018-09-19T10:26:38.718Z,6.00
2018-09-19T10:27:40.831Z,7.75
2018-09-19T10:28:42.970Z,7.50
2018-09-19T10:29:45.163Z,9.38
2018-09-19T10:30:47.225Z,7.15
2018-09-19T10:31:49.349Z,8.08
2018-09-19T10:32:51.473Z,6.37
2018-09-19T10:33:53.614Z,5.80
2018-09-19T10:34:55.731Z,7.08
2018-09-19T10:35:57.858Z,7.33
2018-09-19T10:36:59.994Z,6.58
2018-09-19T10:38:02.106Z,6.40
2018-09-19T10:39:05.410Z,6.87
2018-09-19T10:40:07.587Z,6.62
2018-09-19T10:41:09.722Z,7.15
2018-09-19T10:42:11.844Z,7.80
2018-09-19T10:43:13.975Z,7.47
2018-09-19T10:44:16.117Z,6.15
2018-09-19T10:45:18.231Z,6.28
2018-09-19T10:46:20.405Z,8.33
2018-09-19T10:47:22.827Z,7.42
2018-09-19T10:48:24.967Z,7.62
2018-09-19T10:49:27.131Z,6.70
2018-09-19T10:50:29.213Z,8.70
2018-09-19T10:51:31.391Z,6.97
2018-09-19T10:52:33.510Z,8.23
2018-09-19T10:53:35.747Z,11.53
2018-09-19T10:54:38.090Z,9.13
2018-09-19T10:55:40.293Z,9.40
2018-09-19T10:56:42.526Z,9.23
2018-09-19T10:57:45.034Z,6.22
2018-09-19T10:58:47.161Z,7.15
2018-09-19T10:59:49.273Z,9.30
2018-09-19T11:00:51.396Z,8.23
2018-09-19T11:01:53.566Z,7.22
2018-09-19T11:02:55.694Z,6.65
2018-09-19T11:03:57.842Z,7.65
2018-09-19T11:04:59.945Z,8.00
2018-09-19T11:06:02.069Z,6.35
2018-09-19T11:07:04.405Z,7.42
2018-09-19T11:08:06.513Z,7.10
2018-09-19T11:09:10.133Z,6.35
2018-09-19T11:10:12.257Z,5.40
2018-09-19T11:11:14.378Z,9.10
2018-09-19T11:12:16.502Z,6.67
2018-09-19T11:13:18.626Z,6.95
2018-09-19T11:14:20.789Z,6.45
2018-09-19T11:15:22.922Z,7.05
2018-09-19T11:16:25.029Z,5.85
2018-09-19T11:17:27.359Z,8.03
2018-09-19T11:18:29.501Z,6.33
2018-09-19T11:19:31.834Z,8.25
2018-09-19T11:20:33.995Z,6.87
2018-09-19T11:21:36.125Z,7.80
2018-09-19T11:22:38.278Z,7.53
2018-09-19T11:23:40.746Z,6.00
2018-09-19T11:24:42.886Z,6.28
2018-09-19T11:25:45.023Z,7.35
2018-09-19T11:26:47.188Z,6.00
2018-09-19T11:27:49.313Z,6.12
2018-09-19T11:28:51.558Z,7.62
2018-09-19T11:29:53.745Z,6.95
2018-09-19T11:30:55.859Z,6.80
2018-09-19T11:31:58.173Z,6.85
2018-09-19T11:33:00.329Z,7.12
2018-09-19T11:34:02.466Z,7.30
2018-09-19T11:35:04.634Z,6.53
2018-09-19T11:36:06.783Z,7.62
2018-09-19T11:37:08.885Z,8.28
2018-09-19T11:38:11.035Z,8.90
2018-09-19T11:39:13.154Z,10.30
2018-09-19T11:40:15.278Z,6.60
2018-09-19T11:41:17.438Z,9.20
2018-09-19T11:42:19.562Z,7.12
2018-09-19T11:43:21.785Z,8.90
2018-09-19T11:44:23.895Z,7.83
2018-09-19T11:45:26.023Z,7.92
2018-09-19T11:46:28.146Z,8.48
2018-09-19T11:47:30.267Z,8.03
2018-09-19T11:48:32.428Z,8.45
2018-09-19T11:49:34.808Z,8.25
2018-09-19T11:50:37.246Z,9.45
2018-09-19T11:51:39.367Z,7.92
2018-09-19T11:52:41.543Z,7.85
2018-09-19T11:53:43.685Z,8.83
2018-09-19T11:54:45.810Z,8.20
2018-09-19T11:55:48.133Z,8.03
2018-09-19T11:56:50.562Z,8.13
2018-09-19T11:57:52.724Z,6.35
2018-09-19T11:58:54.854Z,7.55
2018-09-19T11:59:56.986Z,8.15
2018-09-19T12:00:59.392Z,6.28
2018-09-19T12:02:01.688Z,8.10
2018-09-19T12:03:04.081Z,6.60
2018-09-19T12:04:06.212Z,8.65
2018-09-19T12:05:08.329Z,9.28
2018-09-19T12:06:10.495Z,7.05
2018-09-19T12:07:12.699Z,9.15
2018-09-19T12:08:14.861Z,6.85
2018-09-19T12:09:16.993Z,6.58
2018-09-19T12:10:19.130Z,7.20
2018-09-19T12:11:21.271Z,8.18
2018-09-19T12:12:23.407Z,6.95
2018-09-19T12:13:25.952Z,8.60
2018-09-19T12:14:28.077Z,8.78
2018-09-19T12:15:30.246Z,9.43
2018-09-19T12:16:32.372Z,7.25
2018-09-19T12:17:34.510Z,7.47
2018-09-19T12:18:36.802Z,6.92
2018-09-19T12:19:38.973Z,8.80
2018-09-19T12:20:41.954Z,8.23
2018-09-19T12:21:44.460Z,7.97
2018-09-19T12:22:46.585Z,8.28
2018-09-19T12:23:48.744Z,6.97
2018-09-19T12:24:50.873Z,8.30
2018-09-19T12:25:53.042Z,9.05
2018-09-19T12:26:55.207Z,7.08
2018-09-19T12:27:57.374Z,7.12
2018-09-19T12:28:59.548Z,7.83
2018-09-19T12:30:01.678Z,8.03
2018-09-19T12:31:03.855Z,6.90
2018-09-19T12:32:06.054Z,7.53
2018-09-19T12:33:08.199Z,6.17
2018-09-19T12:34:10.398Z,5.25
2018-09-19T12:35:12.995Z,6.80
2018-09-19T12:36:15.194Z,6.33
2018-09-19T12:37:17.342Z,8.38
2018-09-19T12:38:19.599Z,6.08
2018-09-19T12:39:22.017Z,7.87
2018-09-19T12:40:24.149Z,6.53
2018-09-19T12:41:26.392Z,7.85
2018-09-19T12:42:28.517Z,6.75
2018-09-19T12:43:30.639Z,9.08
2018-09-19T12:44:32.786Z,8.98
2018-09-19T12:45:34.922Z,8.00
2018-09-19T12:46:37.093Z,7.67
2018-09-19T12:47:39.424Z,8.95
2018-09-19T12:48:41.550Z,9.48
2018-09-19T12:49:43.686Z,7.33
2018-09-19T12:50:46.023Z,7.17
2018-09-19T12:51:48.464Z,8.35
2018-09-19T12:52:50.635Z,8.58
2018-09-19T12:53:52.798Z,7.20
2018-09-19T12:54:55.171Z,7.60
2018-09-19T12:55:57.317Z,8.03
2018-09-19T12:56:59.450Z,8.23
2018-09-19T12:58:01.573Z,7.95
2018-09-19T12:59:03.780Z,7.12
2018-09-19T13:00:05.960Z,6.15
2018-09-19T13:01:08.122Z,10.15
2018-09-19T13:02:10.275Z,8.03
2018-09-19T13:03:12.408Z,9.28
2018-09-19T13:04:14.546Z,6.90
2018-09-19T13:05:16.677Z,7.85
2018-09-19T13:06:18.804Z,8.48
2018-09-19T13:07:20.945Z,7.87
2018-09-19T13:08:23.068Z,7.85
2018-09-19T13:09:25.510Z,9.15
2018-09-19T13:10:27.675Z,7.03
2018-09-19T13:11:29.802Z,8.03
2018-09-19T13:12:31.926Z,7.97
2018-09-19T13:13:34.167Z,8.13
2018-09-19T13:14:36.339Z,8.10
2018-09-19T13:15:38.474Z,8.15
2018-09-19T13:16:40.783Z,7.30
2018-09-19T13:17:42.965Z,8.10
2018-09-19T13:18:45.098Z,8.23
2018-09-19T13:19:47.577Z,9.00
2018-09-19T13:20:50.162Z,7.92
2018-09-19T13:21:52.307Z,7.53
2018-09-19T13:22:54.629Z,6.97
2018-09-19T13:23:56.995Z,6.42
2018-09-19T13:24:59.172Z,6.60
2018-09-19T13:26:01.328Z,6.65
2018-09-19T13:27:03.789Z,9.70
2018-09-19T13:28:06.253Z,7.85
2018-09-19T13:29:08.821Z,9.40
2018-09-19T13:30:10.973Z,8.53
2018-09-19T13:31:13.122Z,9.93
2018-09-19T13:32:15.253Z,7.70
2018-09-19T13:33:17.373Z,10.28
2018-09-19T13:34:19.830Z,8.48
2018-09-19T13:35:21.986Z,9.18
2018-09-19T13:36:24.105Z,9.40
2018-09-19T13:37:26.233Z,11.78
2018-09-19T13:38:28.419Z,7.65
2018-09-19T13:39:30.564Z,7.97